Bookmark and Share
Track history (hours):
 

Kayu Ramin

Last reported at 2014-Mar-28 23:17 UTC. Time now 2014-Apr-21 04:44 UTC.
Position S 34°57' E 018°47'.
Warning: this ship's position is 23 days out of date.

Length 225 m; draft 7.8 m.

Type: Cargo ship. MMSI: 354989000.

NotesDate/timePositionNaut miles runAvg speedWind from/ knotsBaromVisibWave heightAir tempDewpointWater temp
2014-Mar-28 23:17S 34°57' E 018°47'1013.3
2014-Mar-28 22:30S 34°58' E 018°60'9513.0
2014-Mar-28 15:11S 34°56' E 020°56'913.2
2014-Mar-28 14:29S 34°55' E 021°07'1313.2
2014-Mar-28 13:32S 34°54' E 021°22'4513.2
2014-Mar-28 10:06S 34°47' E 022°16'6313.2
2014-Mar-28 05:18S 34°40' E 023°33'30011.1
2014-Mar-27 02:10S 32°29' E 028°57'2613.8
2014-Mar-27 00:17S 32°10' E 029°18'14712.0
2014-Mar-26 12:04S 30°15' E 031°05'711.5
2014-Mar-26 11:30S 30°10' E 031°10'1110.4
2014-Mar-26 10:27S 30°00' E 031°15'1011.2
2014-Mar-26 09:33S 29°51' E 031°09'6 6.4
2014-Mar-26 08:33S 29°52' E 031°02'0 0.1
2014-Mar-26 07:23S 29°52' E 031°02'0 0.0
2014-Mar-25 23:10S 29°52' E 031°02'0 0.0
2014-Mar-25 22:28S 29°52' E 031°02'0 0.0
2014-Mar-25 21:10S 29°52' E 031°02'0 0.0
2014-Mar-25 20:16S 29°52' E 031°02'0 0.0
2014-Mar-25 17:16S 29°52' E 031°02'0 0.0
2014-Mar-25 16:22S 29°52' E 031°02'0 0.0
2014-Mar-25 15:28S 29°52' E 031°02'0 0.0
2014-Mar-25 14:31S 29°52' E 031°02'4 4.1
2014-Mar-25 13:33S 29°49' E 031°05'0 0.4
2014-Mar-25 12:32S 29°49' E 031°05'2 1.7
2014-Mar-25 11:33S 29°50' E 031°07'4 4.0
2014-Mar-25 10:32S 29°51' E 031°11'2 2.5
2014-Mar-25 09:33S 29°49' E 031°12'3 2.5
2014-Mar-25 08:33S 29°51' E 031°11'7 7.1
2014-Mar-25 07:33S 29°50' E 031°19'1211.9
2014-Mar-25 06:33S 29°46' E 031°32'1212.3
2014-Mar-25 05:33S 29°42' E 031°45'1413.6
2014-Mar-25 04:33S 29°39' E 032°01'1513.2
2014-Mar-25 03:27S 29°36' E 032°17'  

Dump ship's entire track history

sailing weather and tide predictions

Kayu Ramin — 3FPC9 — position and weather